sensor_id;sensor_type;location;lat;lon;timestamp;P1;durP1;ratioP1;P2;durP2;ratioP2
39128;SDS011;24864;49.940;19.770;2023-04-15T00:00:55;4.38;;;3.15;;
39128;SDS011;24864;49.940;19.770;2023-04-15T00:03:24;4.55;;;3.15;;
39128;SDS011;24864;49.940;19.770;2023-04-15T00:05:52;3.17;;;2.20;;
39128;SDS011;24864;49.940;19.770;2023-04-15T00:08:21;3.10;;;2.38;;
39128;SDS011;24864;49.940;19.770;2023-04-15T00:10:51;5.05;;;2.15;;
39128;SDS011;24864;49.940;19.770;2023-04-15T00:13:20;2.25;;;1.77;;
39128;SDS011;24864;49.940;19.770;2023-04-15T00:15:49;3.75;;;2.17;;
39128;SDS011;24864;49.940;19.770;2023-04-15T00:18:17;3.35;;;1.88;;
39128;SDS011;24864;49.940;19.770;2023-04-15T00:20:45;4.53;;;2.35;;
39128;SDS011;24864;49.940;19.770;2023-04-15T00:23:14;2.92;;;2.25;;
39128;SDS011;24864;49.940;19.770;2023-04-15T00:25:42;3.67;;;2.50;;
39128;SDS011;24864;49.940;19.770;2023-04-15T00:28:12;3.55;;;2.13;;
39128;SDS011;24864;49.940;19.770;2023-04-15T00:30:40;3.47;;;2.50;;
39128;SDS011;24864;49.940;19.770;2023-04-15T00:33:09;4.90;;;3.13;;
39128;SDS011;24864;49.940;19.770;2023-04-15T00:35:37;3.38;;;2.05;;
39128;SDS011;24864;49.940;19.770;2023-04-15T00:38:06;3.15;;;2.20;;
39128;SDS011;24864;49.940;19.770;2023-04-15T00:40:34;2.78;;;1.88;;
39128;SDS011;24864;49.940;19.770;2023-04-15T00:43:03;3.38;;;1.48;;
39128;SDS011;24864;49.940;19.770;2023-04-15T00:45:32;3.03;;;1.85;;
39128;SDS011;24864;49.940;19.770;2023-04-15T00:48:01;2.67;;;2.13;;
39128;SDS011;24864;49.940;19.770;2023-04-15T00:50:29;2.60;;;1.80;;
39128;SDS011;24864;49.940;19.770;2023-04-15T00:52:57;3.20;;;2.30;;
39128;SDS011;24864;49.940;19.770;2023-04-15T00:55:25;3.22;;;2.03;;
39128;SDS011;24864;49.940;19.770;2023-04-15T00:57:54;2.80;;;1.52;;
39128;SDS011;24864;49.940;19.770;2023-04-15T01:00:23;3.33;;;1.58;;
39128;SDS011;24864;49.940;19.770;2023-04-15T01:02:53;2.40;;;1.52;;
39128;SDS011;24864;49.940;19.770;2023-04-15T01:05:22;3.53;;;2.03;;
39128;SDS011;24864;49.940;19.770;2023-04-15T01:07:50;2.88;;;2.08;;
39128;SDS011;24864;49.940;19.770;2023-04-15T01:10:18;2.67;;;1.58;;
39128;SDS011;24864;49.940;19.770;2023-04-15T01:12:47;2.35;;;1.42;;
39128;SDS011;24864;49.940;19.770;2023-04-15T01:15:15;2.30;;;1.48;;
39128;SDS011;24864;49.940;19.770;2023-04-15T01:17:44;2.38;;;1.38;;
39128;SDS011;24864;49.940;19.770;2023-04-15T01:20:14;3.40;;;1.30;;
39128;SDS011;24864;49.940;19.770;2023-04-15T01:22:43;1.85;;;1.20;;
39128;SDS011;24864;49.940;19.770;2023-04-15T01:25:14;3.60;;;1.40;;
39128;SDS011;24864;49.940;19.770;2023-04-15T01:27:47;3.35;;;1.40;;
39128;SDS011;24864;49.940;19.770;2023-04-15T01:30:16;2.67;;;1.50;;
39128;SDS011;24864;49.940;19.770;2023-04-15T01:32:44;2.78;;;1.48;;
39128;SDS011;24864;49.940;19.770;2023-04-15T01:35:12;2.30;;;1.42;;
39128;SDS011;24864;49.940;19.770;2023-04-15T01:37:41;2.83;;;2.08;;
39128;SDS011;24864;49.940;19.770;2023-04-15T01:40:09;3.10;;;1.50;;
39128;SDS011;24864;49.940;19.770;2023-04-15T01:42:39;3.28;;;1.58;;
39128;SDS011;24864;49.940;19.770;2023-04-15T01:45:09;3.38;;;1.50;;
39128;SDS011;24864;49.940;19.770;2023-04-15T01:47:38;2.45;;;1.90;;
39128;SDS011;24864;49.940;19.770;2023-04-15T01:50:07;2.15;;;1.33;;
39128;SDS011;24864;49.940;19.770;2023-04-15T01:52:36;2.42;;;1.20;;
39128;SDS011;24864;49.940;19.770;2023-04-15T01:55:04;4.53;;;1.23;;
39128;SDS011;24864;49.940;19.770;2023-04-15T01:57:33;2.33;;;1.35;;
39128;SDS011;24864;49.940;19.770;2023-04-15T02:00:02;4.80;;;1.50;;
39128;SDS011;24864;49.940;19.770;2023-04-15T02:02:34;2.08;;;1.10;;
39128;SDS011;24864;49.940;19.770;2023-04-15T02:05:03;2.65;;;1.42;;
39128;SDS011;24864;49.940;19.770;2023-04-15T02:07:32;2.10;;;1.50;;
39128;SDS011;24864;49.940;19.770;2023-04-15T02:10:01;2.35;;;1.20;;
39128;SDS011;24864;49.940;19.770;2023-04-15T02:12:29;2.25;;;1.40;;
39128;SDS011;24864;49.940;19.770;2023-04-15T02:14:57;1.80;;;1.33;;
39128;SDS011;24864;49.940;19.770;2023-04-15T02:17:26;8.50;;;1.73;;
39128;SDS011;24864;49.940;19.770;2023-04-15T02:19:56;3.08;;;1.48;;
39128;SDS011;24864;49.940;19.770;2023-04-15T02:22:25;3.00;;;1.48;;
39128;SDS011;24864;49.940;19.770;2023-04-15T02:24:53;1.95;;;1.40;;
39128;SDS011;24864;49.940;19.770;2023-04-15T02:27:21;3.30;;;1.73;;
39128;SDS011;24864;49.940;19.770;2023-04-15T02:29:49;1.95;;;1.40;;
39128;SDS011;24864;49.940;19.770;2023-04-15T02:32:18;2.80;;;1.70;;
39128;SDS011;24864;49.940;19.770;2023-04-15T02:34:48;2.67;;;1.95;;
39128;SDS011;24864;49.940;19.770;2023-04-15T02:37:18;1.88;;;1.42;;
39128;SDS011;24864;49.940;19.770;2023-04-15T02:39:46;2.15;;;1.55;;
39128;SDS011;24864;49.940;19.770;2023-04-15T02:42:15;2.85;;;1.75;;
39128;SDS011;24864;49.940;19.770;2023-04-15T02:44:44;2.30;;;1.50;;
39128;SDS011;24864;49.940;19.770;2023-04-15T02:47:12;2.63;;;1.90;;
39128;SDS011;24864;49.940;19.770;2023-04-15T02:49:41;2.80;;;2.17;;
39128;SDS011;24864;49.940;19.770;2023-04-15T02:52:09;2.17;;;1.45;;
39128;SDS011;24864;49.940;19.770;2023-04-15T02:54:39;3.22;;;1.50;;
39128;SDS011;24864;49.940;19.770;2023-04-15T02:57:08;3.08;;;1.88;;
39128;SDS011;24864;49.940;19.770;2023-04-15T02:59:37;2.20;;;1.30;;
39128;SDS011;24864;49.940;19.770;2023-04-15T03:02:05;2.78;;;1.90;;
39128;SDS011;24864;49.940;19.770;2023-04-15T03:04:34;3.17;;;2.00;;
39128;SDS011;24864;49.940;19.770;2023-04-15T03:07:02;2.65;;;1.73;;
39128;SDS011;24864;49.940;19.770;2023-04-15T03:09:30;2.80;;;1.70;;
39128;SDS011;24864;49.940;19.770;2023-04-15T03:12:00;3.05;;;1.83;;
39128;SDS011;24864;49.940;19.770;2023-04-15T03:14:29;4.15;;;2.45;;
39128;SDS011;24864;49.940;19.770;2023-04-15T03:16:57;6.75;;;2.38;;
39128;SDS011;24864;49.940;19.770;2023-04-15T03:19:25;2.30;;;1.98;;
39128;SDS011;24864;49.940;19.770;2023-04-15T03:21:54;3.05;;;1.90;;
39128;SDS011;24864;49.940;19.770;2023-04-15T03:24:22;3.50;;;2.03;;
39128;SDS011;24864;49.940;19.770;2023-04-15T03:26:51;3.65;;;1.73;;
39128;SDS011;24864;49.940;19.770;2023-04-15T03:29:22;2.45;;;1.83;;
39128;SDS011;24864;49.940;19.770;2023-04-15T03:31:51;1.88;;;1.38;;
39128;SDS011;24864;49.940;19.770;2023-04-15T03:34:19;2.05;;;1.42;;
39128;SDS011;24864;49.940;19.770;2023-04-15T03:36:47;2.72;;;1.70;;
39128;SDS011;24864;49.940;19.770;2023-04-15T03:39:16;2.53;;;1.55;;
39128;SDS011;24864;49.940;19.770;2023-04-15T03:41:44;2.20;;;1.33;;
39128;SDS011;24864;49.940;19.770;2023-04-15T03:44:12;2.55;;;1.48;;
39128;SDS011;24864;49.940;19.770;2023-04-15T03:46:42;3.05;;;1.55;;
39128;SDS011;24864;49.940;19.770;2023-04-15T03:49:10;2.78;;;1.45;;
39128;SDS011;24864;49.940;19.770;2023-04-15T03:51:40;2.22;;;1.52;;
39128;SDS011;24864;49.940;19.770;2023-04-15T03:54:08;3.13;;;1.92;;
39128;SDS011;24864;49.940;19.770;2023-04-15T03:56:37;5.00;;;3.92;;
39128;SDS011;24864;49.940;19.770;2023-04-15T03:59:05;8.25;;;7.32;;
39128;SDS011;24864;49.940;19.770;2023-04-15T04:01:34;3.78;;;2.28;;
39128;SDS011;24864;49.940;19.770;2023-04-15T04:04:03;3.35;;;2.20;;
39128;SDS011;24864;49.940;19.770;2023-04-15T04:06:32;3.65;;;2.30;;
39128;SDS011;24864;49.940;19.770;2023-04-15T04:09:00;4.55;;;3.10;;
39128;SDS011;24864;49.940;19.770;2023-04-15T04:11:29;7.53;;;4.80;;
39128;SDS011;24864;49.940;19.770;2023-04-15T04:13:58;9.63;;;4.50;;
39128;SDS011;24864;49.940;19.770;2023-04-15T04:16:26;8.63;;;4.00;;
39128;SDS011;24864;49.940;19.770;2023-04-15T04:18:55;7.18;;;3.78;;
39128;SDS011;24864;49.940;19.770;2023-04-15T04:21:24;4.97;;;3.35;;
39128;SDS011;24864;49.940;19.770;2023-04-15T04:23:53;6.45;;;3.50;;
39128;SDS011;24864;49.940;19.770;2023-04-15T04:26:22;5.13;;;3.22;;
39128;SDS011;24864;49.940;19.770;2023-04-15T04:28:50;5.93;;;3.75;;
39128;SDS011;24864;49.940;19.770;2023-04-15T04:31:18;7.22;;;3.58;;
39128;SDS011;24864;49.940;19.770;2023-04-15T04:33:47;7.25;;;3.58;;
39128;SDS011;24864;49.940;19.770;2023-04-15T04:36:15;5.43;;;3.85;;
39128;SDS011;24864;49.940;19.770;2023-04-15T04:38:45;4.55;;;3.55;;
39128;SDS011;24864;49.940;19.770;2023-04-15T04:41:13;5.15;;;4.10;;
39128;SDS011;24864;49.940;19.770;2023-04-15T04:43:41;4.60;;;3.38;;
39128;SDS011;24864;49.940;19.770;2023-04-15T04:46:10;6.80;;;4.35;;
39128;SDS011;24864;49.940;19.770;2023-04-15T04:48:38;4.90;;;3.38;;
39128;SDS011;24864;49.940;19.770;2023-04-15T04:51:06;8.10;;;4.15;;
39128;SDS011;24864;49.940;19.770;2023-04-15T04:53:35;8.02;;;3.83;;
39128;SDS011;24864;49.940;19.770;2023-04-15T04:56:05;5.85;;;4.15;;
39128;SDS011;24864;49.940;19.770;2023-04-15T04:58:33;6.80;;;3.83;;
39128;SDS011;24864;49.940;19.770;2023-04-15T05:01:02;6.47;;;3.30;;
39128;SDS011;24864;49.940;19.770;2023-04-15T05:03:30;9.95;;;3.70;;
39128;SDS011;24864;49.940;19.770;2023-04-15T05:05:58;4.93;;;3.33;;
39128;SDS011;24864;49.940;19.770;2023-04-15T05:08:28;6.35;;;3.83;;
39128;SDS011;24864;49.940;19.770;2023-04-15T05:10:57;4.65;;;3.20;;
39128;SDS011;24864;49.940;19.770;2023-04-15T05:13:26;6.00;;;3.65;;
39128;SDS011;24864;49.940;19.770;2023-04-15T05:15:55;5.10;;;3.60;;
39128;SDS011;24864;49.940;19.770;2023-04-15T05:18:23;6.57;;;4.15;;
39128;SDS011;24864;49.940;19.770;2023-04-15T05:20:52;6.13;;;3.67;;
39128;SDS011;24864;49.940;19.770;2023-04-15T05:23:20;8.35;;;4.85;;
39128;SDS011;24864;49.940;19.770;2023-04-15T05:25:49;8.98;;;5.80;;
39128;SDS011;24864;49.940;19.770;2023-04-15T05:28:17;9.73;;;6.00;;
39128;SDS011;24864;49.940;19.770;2023-04-15T05:30:47;11.77;;;6.30;;
39128;SDS011;24864;49.940;19.770;2023-04-15T05:33:15;7.88;;;4.97;;
39128;SDS011;24864;49.940;19.770;2023-04-15T05:35:44;7.70;;;5.10;;
39128;SDS011;24864;49.940;19.770;2023-04-15T05:38:13;6.38;;;5.43;;
39128;SDS011;24864;49.940;19.770;2023-04-15T05:40:41;7.10;;;5.88;;
39128;SDS011;24864;49.940;19.770;2023-04-15T05:43:09;7.20;;;5.68;;
39128;SDS011;24864;49.940;19.770;2023-04-15T05:45:37;7.53;;;5.20;;
39128;SDS011;24864;49.940;19.770;2023-04-15T05:48:07;7.40;;;5.28;;
39128;SDS011;24864;49.940;19.770;2023-04-15T05:50:35;10.05;;;7.97;;
39128;SDS011;24864;49.940;19.770;2023-04-15T05:53:03;6.20;;;5.03;;
39128;SDS011;24864;49.940;19.770;2023-04-15T05:55:32;6.38;;;4.85;;
39128;SDS011;24864;49.940;19.770;2023-04-15T05:58:00;7.47;;;5.25;;
39128;SDS011;24864;49.940;19.770;2023-04-15T06:00:30;6.03;;;4.40;;
39128;SDS011;24864;49.940;19.770;2023-04-15T06:02:58;8.40;;;5.35;;
39128;SDS011;24864;49.940;19.770;2023-04-15T06:05:28;8.15;;;4.13;;
39128;SDS011;24864;49.940;19.770;2023-04-15T06:07:56;5.80;;;4.13;;
39128;SDS011;24864;49.940;19.770;2023-04-15T06:10:24;7.35;;;4.05;;
39128;SDS011;24864;49.940;19.770;2023-04-15T06:12:52;8.13;;;3.55;;
39128;SDS011;24864;49.940;19.770;2023-04-15T06:15:21;6.68;;;3.90;;
39128;SDS011;24864;49.940;19.770;2023-04-15T06:17:49;4.45;;;2.97;;
39128;SDS011;24864;49.940;19.770;2023-04-15T06:20:18;4.60;;;3.28;;
39128;SDS011;24864;49.940;19.770;2023-04-15T06:22:47;5.05;;;2.97;;
39128;SDS011;24864;49.940;19.770;2023-04-15T06:25:16;4.40;;;3.22;;
39128;SDS011;24864;49.940;19.770;2023-04-15T06:27:44;5.15;;;2.70;;
39128;SDS011;24864;49.940;19.770;2023-04-15T06:30:12;11.15;;;5.88;;
39128;SDS011;24864;49.940;19.770;2023-04-15T06:32:41;10.40;;;6.35;;
39128;SDS011;24864;49.940;19.770;2023-04-15T06:35:09;8.77;;;5.45;;
39128;SDS011;24864;49.940;19.770;2023-04-15T06:37:37;5.97;;;4.07;;
39128;SDS011;24864;49.940;19.770;2023-04-15T06:40:08;5.68;;;4.35;;
39128;SDS011;24864;49.940;19.770;2023-04-15T06:42:37;6.05;;;3.55;;
39128;SDS011;24864;49.940;19.770;2023-04-15T06:45:06;5.57;;;3.63;;
39128;SDS011;24864;49.940;19.770;2023-04-15T06:47:35;7.78;;;3.00;;
39128;SDS011;24864;49.940;19.770;2023-04-15T06:50:04;4.43;;;3.33;;
39128;SDS011;24864;49.940;19.770;2023-04-15T06:52:32;21.50;;;7.38;;
39128;SDS011;24864;49.940;19.770;2023-04-15T06:55:01;16.20;;;5.90;;
39128;SDS011;24864;49.940;19.770;2023-04-15T06:57:31;6.75;;;3.85;;
39128;SDS011;24864;49.940;19.770;2023-04-15T07:00:00;7.00;;;3.70;;
39128;SDS011;24864;49.940;19.770;2023-04-15T07:02:31;7.75;;;3.80;;
39128;SDS011;24864;49.940;19.770;2023-04-15T07:04:59;8.82;;;5.30;;
39128;SDS011;24864;49.940;19.770;2023-04-15T07:07:28;8.32;;;4.30;;
39128;SDS011;24864;49.940;19.770;2023-04-15T07:09:57;6.65;;;4.28;;
39128;SDS011;24864;49.940;19.770;2023-04-15T07:12:25;5.90;;;3.55;;
39128;SDS011;24864;49.940;19.770;2023-04-15T07:14:55;9.18;;;4.72;;
39128;SDS011;24864;49.940;19.770;2023-04-15T07:17:23;4.40;;;2.75;;
39128;SDS011;24864;49.940;19.770;2023-04-15T07:19:52;6.82;;;3.58;;
39128;SDS011;24864;49.940;19.770;2023-04-15T07:22:20;5.80;;;3.03;;
39128;SDS011;24864;49.940;19.770;2023-04-15T07:24:48;4.22;;;3.17;;
39128;SDS011;24864;49.940;19.770;2023-04-15T07:27:16;5.00;;;2.03;;
39128;SDS011;24864;49.940;19.770;2023-04-15T07:29:45;5.78;;;2.50;;
39128;SDS011;24864;49.940;19.770;2023-04-15T07:32:14;3.35;;;2.65;;
39128;SDS011;24864;49.940;19.770;2023-04-15T07:34:43;5.75;;;2.78;;
39128;SDS011;24864;49.940;19.770;2023-04-15T07:37:11;3.72;;;3.00;;
39128;SDS011;24864;49.940;19.770;2023-04-15T07:39:40;4.88;;;2.70;;
39128;SDS011;24864;49.940;19.770;2023-04-15T07:42:09;3.33;;;2.33;;
39128;SDS011;24864;49.940;19.770;2023-04-15T07:44:37;4.00;;;2.95;;
39128;SDS011;24864;49.940;19.770;2023-04-15T07:47:05;3.92;;;2.88;;
39128;SDS011;24864;49.940;19.770;2023-04-15T07:49:35;9.57;;;3.40;;
39128;SDS011;24864;49.940;19.770;2023-04-15T07:52:03;5.43;;;3.78;;
39128;SDS011;24864;49.940;19.770;2023-04-15T07:54:32;6.28;;;3.80;;
39128;SDS011;24864;49.940;19.770;2023-04-15T07:57:00;8.30;;;3.67;;
39128;SDS011;24864;49.940;19.770;2023-04-15T07:59:29;4.82;;;3.80;;
39128;SDS011;24864;49.940;19.770;2023-04-15T08:01:59;6.65;;;4.57;;
39128;SDS011;24864;49.940;19.770;2023-04-15T08:04:27;7.20;;;4.38;;
39128;SDS011;24864;49.940;19.770;2023-04-15T08:06:58;5.80;;;4.07;;
39128;SDS011;24864;49.940;19.770;2023-04-15T08:09:26;7.13;;;4.55;;
39128;SDS011;24864;49.940;19.770;2023-04-15T08:11:54;8.43;;;4.43;;
39128;SDS011;24864;49.940;19.770;2023-04-15T08:14:23;5.22;;;4.18;;
39128;SDS011;24864;49.940;19.770;2023-04-15T08:16:51;8.02;;;4.80;;
39128;SDS011;24864;49.940;19.770;2023-04-15T08:19:20;7.22;;;4.05;;
39128;SDS011;24864;49.940;19.770;2023-04-15T08:21:49;5.88;;;4.38;;
39128;SDS011;24864;49.940;19.770;2023-04-15T08:24:19;6.32;;;4.43;;
39128;SDS011;24864;49.940;19.770;2023-04-15T08:26:48;5.03;;;4.35;;
39128;SDS011;24864;49.940;19.770;2023-04-15T08:29:16;7.78;;;4.53;;
39128;SDS011;24864;49.940;19.770;2023-04-15T08:31:44;4.70;;;3.35;;
39128;SDS011;24864;49.940;19.770;2023-04-15T08:34:13;2.45;;;1.67;;
39128;SDS011;24864;49.940;19.770;2023-04-15T08:36:41;3.00;;;1.80;;
39128;SDS011;24864;49.940;19.770;2023-04-15T08:39:10;2.78;;;1.73;;
39128;SDS011;24864;49.940;19.770;2023-04-15T08:41:40;3.55;;;1.77;;
39128;SDS011;24864;49.940;19.770;2023-04-15T08:44:14;1.75;;;1.20;;
39128;SDS011;24864;49.940;19.770;2023-04-15T08:46:42;4.72;;;1.50;;
39128;SDS011;24864;49.940;19.770;2023-04-15T08:49:10;1.65;;;1.17;;
39128;SDS011;24864;49.940;19.770;2023-04-15T08:51:39;2.15;;;1.02;;
39128;SDS011;24864;49.940;19.770;2023-04-15T08:54:08;2.05;;;1.20;;
39128;SDS011;24864;49.940;19.770;2023-04-15T08:56:37;3.13;;;1.33;;
39128;SDS011;24864;49.940;19.770;2023-04-15T08:59:08;1.10;;;0.98;;
39128;SDS011;24864;49.940;19.770;2023-04-15T09:01:36;1.40;;;1.00;;
39128;SDS011;24864;49.940;19.770;2023-04-15T09:04:05;2.53;;;0.90;;
39128;SDS011;24864;49.940;19.770;2023-04-15T09:06:34;2.70;;;1.27;;
39128;SDS011;24864;49.940;19.770;2023-04-15T09:09:02;3.45;;;1.42;;
39128;SDS011;24864;49.940;19.770;2023-04-15T09:11:30;3.92;;;1.30;;
39128;SDS011;24864;49.940;19.770;2023-04-15T09:13:59;1.65;;;0.95;;
39128;SDS011;24864;49.940;19.770;2023-04-15T09:16:29;2.03;;;1.20;;
39128;SDS011;24864;49.940;19.770;2023-04-15T09:18:57;2.30;;;0.82;;
39128;SDS011;24864;49.940;19.770;2023-04-15T09:21:26;1.77;;;1.10;;
39128;SDS011;24864;49.940;19.770;2023-04-15T09:23:55;2.60;;;1.00;;
39128;SDS011;24864;49.940;19.770;2023-04-15T09:26:31;2.13;;;1.00;;
39128;SDS011;24864;49.940;19.770;2023-04-15T09:29:04;2.42;;;0.80;;
39128;SDS011;24864;49.940;19.770;2023-04-15T09:31:34;2.60;;;1.00;;
39128;SDS011;24864;49.940;19.770;2023-04-15T09:34:03;1.95;;;1.20;;
39128;SDS011;24864;49.940;19.770;2023-04-15T09:36:37;1.63;;;0.90;;
39128;SDS011;24864;49.940;19.770;2023-04-15T09:39:19;2.28;;;0.98;;
39128;SDS011;24864;49.940;19.770;2023-04-15T09:41:51;2.13;;;1.00;;
39128;SDS011;24864;49.940;19.770;2023-04-15T09:44:32;1.13;;;0.70;;
39128;SDS011;24864;49.940;19.770;2023-04-15T09:47:02;2.17;;;1.02;;
39128;SDS011;24864;49.940;19.770;2023-04-15T09:49:31;1.70;;;0.63;;
39128;SDS011;24864;49.940;19.770;2023-04-15T09:51:59;1.30;;;0.82;;
39128;SDS011;24864;49.940;19.770;2023-04-15T09:54:32;1.30;;;0.80;;
39128;SDS011;24864;49.940;19.770;2023-04-15T09:57:05;2.72;;;0.70;;
39128;SDS011;24864;49.940;19.770;2023-04-15T09:59:34;2.03;;;0.82;;
39128;SDS011;24864;49.940;19.770;2023-04-15T10:02:04;3.08;;;1.02;;
39128;SDS011;24864;49.940;19.770;2023-04-15T10:04:34;1.00;;;0.75;;
39128;SDS011;24864;49.940;19.770;2023-04-15T10:07:04;1.33;;;0.80;;
39128;SDS011;24864;49.940;19.770;2023-04-15T10:09:34;3.50;;;0.93;;
39128;SDS011;24864;49.940;19.770;2023-04-15T10:12:03;1.33;;;1.00;;
39128;SDS011;24864;49.940;19.770;2023-04-15T10:14:32;3.38;;;1.40;;
39128;SDS011;24864;49.940;19.770;2023-04-15T10:17:01;11.00;;;1.60;;
39128;SDS011;24864;49.940;19.770;2023-04-15T10:19:33;3.93;;;1.53;;
39128;SDS011;24864;49.940;19.770;2023-04-15T10:22:03;4.22;;;1.83;;
39128;SDS011;24864;49.940;19.770;2023-04-15T10:24:32;3.63;;;2.10;;
39128;SDS011;24864;49.940;19.770;2023-04-15T10:27:00;4.68;;;2.35;;
39128;SDS011;24864;49.940;19.770;2023-04-15T10:29:31;4.50;;;1.67;;
39128;SDS011;24864;49.940;19.770;2023-04-15T10:31:59;3.17;;;2.33;;
39128;SDS011;24864;49.940;19.770;2023-04-15T10:34:30;3.65;;;1.95;;
39128;SDS011;24864;49.940;19.770;2023-04-15T10:37:00;2.70;;;2.20;;
39128;SDS011;24864;49.940;19.770;2023-04-15T10:39:39;5.95;;;2.60;;
39128;SDS011;24864;49.940;19.770;2023-04-15T10:42:10;8.52;;;4.13;;
39128;SDS011;24864;49.940;19.770;2023-04-15T10:44:40;4.97;;;2.35;;
39128;SDS011;24864;49.940;19.770;2023-04-15T10:47:10;2.20;;;1.52;;
39128;SDS011;24864;49.940;19.770;2023-04-15T10:49:44;3.65;;;1.70;;
39128;SDS011;24864;49.940;19.770;2023-04-15T10:52:13;5.13;;;2.58;;
39128;SDS011;24864;49.940;19.770;2023-04-15T10:54:43;1.92;;;1.50;;
39128;SDS011;24864;49.940;19.770;2023-04-15T10:57:15;1.85;;;1.10;;
39128;SDS011;24864;49.940;19.770;2023-04-15T11:00:02;5.35;;;1.70;;
39128;SDS011;24864;49.940;19.770;2023-04-15T11:02:41;2.78;;;1.27;;
39128;SDS011;24864;49.940;19.770;2023-04-15T11:05:13;3.95;;;1.40;;
39128;SDS011;24864;49.940;19.770;2023-04-15T11:07:52;2.88;;;1.83;;
39128;SDS011;24864;49.940;19.770;2023-04-15T11:13:21;3.13;;;2.13;;
39128;SDS011;24864;49.940;19.770;2023-04-15T11:15:54;2.28;;;1.60;;
39128;SDS011;24864;49.940;19.770;2023-04-15T11:18:25;7.45;;;2.42;;
39128;SDS011;24864;49.940;19.770;2023-04-15T11:23:27;4.38;;;1.85;;
39128;SDS011;24864;49.940;19.770;2023-04-15T11:25:57;3.08;;;1.98;;
39128;SDS011;24864;49.940;19.770;2023-04-15T11:28:26;2.75;;;1.98;;
39128;SDS011;24864;49.940;19.770;2023-04-15T11:30:56;3.42;;;1.35;;
39128;SDS011;24864;49.940;19.770;2023-04-15T11:33:25;3.65;;;2.10;;
39128;SDS011;24864;49.940;19.770;2023-04-15T11:35:54;2.50;;;1.70;;
39128;SDS011;24864;49.940;19.770;2023-04-15T11:38:23;2.42;;;1.60;;
39128;SDS011;24864;49.940;19.770;2023-04-15T11:40:52;1.65;;;1.27;;
39128;SDS011;24864;49.940;19.770;2023-04-15T11:43:20;1.48;;;1.38;;
39128;SDS011;24864;49.940;19.770;2023-04-15T11:45:50;1.95;;;1.40;;
39128;SDS011;24864;49.940;19.770;2023-04-15T11:48:21;3.40;;;1.90;;
39128;SDS011;24864;49.940;19.770;2023-04-15T11:50:51;2.38;;;1.67;;
39128;SDS011;24864;49.940;19.770;2023-04-15T11:53:21;4.53;;;2.10;;
39128;SDS011;24864;49.940;19.770;2023-04-15T11:55:51;4.28;;;1.90;;
39128;SDS011;24864;49.940;19.770;2023-04-15T11:58:20;2.72;;;1.73;;
39128;SDS011;24864;49.940;19.770;2023-04-15T12:00:51;3.25;;;2.03;;
39128;SDS011;24864;49.940;19.770;2023-04-15T12:03:22;2.58;;;1.88;;
39128;SDS011;24864;49.940;19.770;2023-04-15T12:06:05;4.53;;;3.87;;
39128;SDS011;24864;49.940;19.770;2023-04-15T12:11:34;10.60;;;5.53;;
39128;SDS011;24864;49.940;19.770;2023-04-15T12:16:50;2.38;;;2.03;;
39128;SDS011;24864;49.940;19.770;2023-04-15T12:19:24;3.50;;;2.35;;
39128;SDS011;24864;49.940;19.770;2023-04-15T12:21:56;3.42;;;1.80;;
39128;SDS011;24864;49.940;19.770;2023-04-15T12:24:26;3.05;;;1.77;;
39128;SDS011;24864;49.940;19.770;2023-04-15T12:26:56;3.42;;;1.80;;
39128;SDS011;24864;49.940;19.770;2023-04-15T12:29:27;4.32;;;2.08;;
39128;SDS011;24864;49.940;19.770;2023-04-15T12:31:57;2.10;;;1.80;;
39128;SDS011;24864;49.940;19.770;2023-04-15T12:34:27;5.45;;;2.00;;
39128;SDS011;24864;49.940;19.770;2023-04-15T12:36:57;1.80;;;1.55;;
39128;SDS011;24864;49.940;19.770;2023-04-15T12:39:26;2.45;;;2.10;;
39128;SDS011;24864;49.940;19.770;2023-04-15T12:41:58;1.98;;;1.60;;
39128;SDS011;24864;49.940;19.770;2023-04-15T12:44:27;3.30;;;1.73;;
39128;SDS011;24864;49.940;19.770;2023-04-15T12:46:55;2.83;;;1.98;;
39128;SDS011;24864;49.940;19.770;2023-04-15T12:49:24;9.75;;;2.50;;
39128;SDS011;24864;49.940;19.770;2023-04-15T12:51:53;2.72;;;2.10;;
39128;SDS011;24864;49.940;19.770;2023-04-15T12:54:22;2.15;;;1.60;;
39128;SDS011;24864;49.940;19.770;2023-04-15T12:56:51;3.70;;;2.05;;
39128;SDS011;24864;49.940;19.770;2023-04-15T12:59:21;2.75;;;1.80;;
39128;SDS011;24864;49.940;19.770;2023-04-15T13:01:50;4.18;;;1.88;;
39128;SDS011;24864;49.940;19.770;2023-04-15T13:04:20;3.05;;;2.00;;
39128;SDS011;24864;49.940;19.770;2023-04-15T13:06:49;2.88;;;1.85;;
39128;SDS011;24864;49.940;19.770;2023-04-15T13:09:17;4.72;;;1.95;;
39128;SDS011;24864;49.940;19.770;2023-04-15T13:11:46;2.20;;;1.80;;
39128;SDS011;24864;49.940;19.770;2023-04-15T13:14:14;3.75;;;1.52;;
39128;SDS011;24864;49.940;19.770;2023-04-15T13:16:44;5.05;;;1.98;;
39128;SDS011;24864;49.940;19.770;2023-04-15T13:19:12;2.75;;;1.92;;
39128;SDS011;24864;49.940;19.770;2023-04-15T13:21:41;5.63;;;1.95;;
39128;SDS011;24864;49.940;19.770;2023-04-15T13:24:09;4.40;;;1.98;;
39128;SDS011;24864;49.940;19.770;2023-04-15T13:26:38;9.05;;;2.22;;
39128;SDS011;24864;49.940;19.770;2023-04-15T13:29:07;2.40;;;1.58;;
39128;SDS011;24864;49.940;19.770;2023-04-15T13:31:36;4.90;;;2.15;;
39128;SDS011;24864;49.940;19.770;2023-04-15T13:34:06;3.13;;;1.80;;
39128;SDS011;24864;49.940;19.770;2023-04-15T13:36:34;3.72;;;1.45;;
39128;SDS011;24864;49.940;19.770;2023-04-15T13:39:02;3.47;;;1.70;;
39128;SDS011;24864;49.940;19.770;2023-04-15T13:41:31;3.97;;;1.58;;
39128;SDS011;24864;49.940;19.770;2023-04-15T13:43:59;4.70;;;1.77;;
39128;SDS011;24864;49.940;19.770;2023-04-15T13:46:28;2.67;;;1.25;;
39128;SDS011;24864;49.940;19.770;2023-04-15T13:48:56;3.10;;;1.80;;
39128;SDS011;24864;49.940;19.770;2023-04-15T13:51:26;1.67;;;1.30;;
39128;SDS011;24864;49.940;19.770;2023-04-15T13:53:54;6.15;;;1.75;;
39128;SDS011;24864;49.940;19.770;2023-04-15T13:56:23;3.13;;;1.50;;
39128;SDS011;24864;49.940;19.770;2023-04-15T13:58:51;3.25;;;2.13;;
39128;SDS011;24864;49.940;19.770;2023-04-15T14:01:24;3.15;;;2.00;;
39128;SDS011;24864;49.940;19.770;2023-04-15T14:03:53;2.58;;;2.10;;
39128;SDS011;24864;49.940;19.770;2023-04-15T14:06:21;2.65;;;1.80;;
39128;SDS011;24864;49.940;19.770;2023-04-15T14:08:51;4.20;;;1.90;;
39128;SDS011;24864;49.940;19.770;2023-04-15T14:11:19;5.38;;;2.28;;
39128;SDS011;24864;49.940;19.770;2023-04-15T14:13:47;4.47;;;2.30;;
39128;SDS011;24864;49.940;19.770;2023-04-15T14:16:16;2.85;;;2.20;;
39128;SDS011;24864;49.940;19.770;2023-04-15T14:18:45;3.50;;;2.22;;
39128;SDS011;24864;49.940;19.770;2023-04-15T14:21:13;7.25;;;2.83;;
39128;SDS011;24864;49.940;19.770;2023-04-15T14:23:42;8.02;;;2.90;;
39128;SDS011;24864;49.940;19.770;2023-04-15T14:26:12;3.05;;;2.22;;
39128;SDS011;24864;49.940;19.770;2023-04-15T14:28:40;1.98;;;1.70;;
39128;SDS011;24864;49.940;19.770;2023-04-15T14:31:10;2.30;;;1.88;;
39128;SDS011;24864;49.940;19.770;2023-04-15T14:33:39;4.72;;;2.33;;
39128;SDS011;24864;49.940;19.770;2023-04-15T14:36:08;3.10;;;2.30;;
39128;SDS011;24864;49.940;19.770;2023-04-15T14:38:38;2.70;;;1.98;;
39128;SDS011;24864;49.940;19.770;2023-04-15T14:41:06;3.08;;;1.67;;
39128;SDS011;24864;49.940;19.770;2023-04-15T14:43:36;4.10;;;2.00;;
39128;SDS011;24864;49.940;19.770;2023-04-15T14:46:05;3.50;;;2.00;;
39128;SDS011;24864;49.940;19.770;2023-04-15T14:48:34;2.22;;;1.77;;
39128;SDS011;24864;49.940;19.770;2023-04-15T14:51:03;2.17;;;1.50;;
39128;SDS011;24864;49.940;19.770;2023-04-15T14:53:31;2.55;;;2.30;;
39128;SDS011;24864;49.940;19.770;2023-04-15T14:55:59;7.85;;;2.20;;